sensor_id;sensor_type;location;lat;lon;timestamp;P1;durP1;ratioP1;P2;durP2;ratioP2
3601;SDS011;1815;50.950;6.920;2022-11-11T00:02:01;9.25;;;4.63;;
3601;SDS011;1815;50.950;6.920;2022-11-11T00:04:45;6.95;;;5.10;;
3601;SDS011;1815;50.950;6.920;2022-11-11T00:07:29;7.32;;;4.20;;
3601;SDS011;1815;50.950;6.920;2022-11-11T00:10:14;6.72;;;3.97;;
3601;SDS011;1815;50.950;6.920;2022-11-11T00:12:59;8.73;;;4.55;;
3601;SDS011;1815;50.950;6.920;2022-11-11T00:15:45;6.65;;;5.00;;
3601;SDS011;1815;50.950;6.920;2022-11-11T00:18:29;6.97;;;5.30;;
3601;SDS011;1815;50.950;6.920;2022-11-11T00:21:32;6.47;;;4.90;;
3601;SDS011;1815;50.950;6.920;2022-11-11T00:24:23;7.03;;;4.90;;
3601;SDS011;1815;50.950;6.920;2022-11-11T00:27:28;8.20;;;5.10;;
3601;SDS011;1815;50.950;6.920;2022-11-11T00:30:13;5.35;;;4.07;;
3601;SDS011;1815;50.950;6.920;2022-11-11T00:32:57;6.07;;;4.07;;
3601;SDS011;1815;50.950;6.920;2022-11-11T00:35:42;6.82;;;4.38;;
3601;SDS011;1815;50.950;6.920;2022-11-11T00:38:40;5.80;;;4.20;;
3601;SDS011;1815;50.950;6.920;2022-11-11T00:41:32;7.13;;;4.57;;
3601;SDS011;1815;50.950;6.920;2022-11-11T00:44:16;5.45;;;3.90;;
3601;SDS011;1815;50.950;6.920;2022-11-11T00:47:00;7.07;;;4.50;;
3601;SDS011;1815;50.950;6.920;2022-11-11T00:50:05;7.95;;;5.53;;
3601;SDS011;1815;50.950;6.920;2022-11-11T00:53:13;8.07;;;4.88;;
3601;SDS011;1815;50.950;6.920;2022-11-11T00:55:59;4.68;;;3.88;;
3601;SDS011;1815;50.950;6.920;2022-11-11T00:58:43;6.72;;;4.55;;
3601;SDS011;1815;50.950;6.920;2022-11-11T01:01:27;6.60;;;5.30;;
3601;SDS011;1815;50.950;6.920;2022-11-11T01:04:12;6.28;;;4.80;;
3601;SDS011;1815;50.950;6.920;2022-11-11T01:06:56;7.95;;;5.35;;
3601;SDS011;1815;50.950;6.920;2022-11-11T01:09:40;5.18;;;4.50;;
3601;SDS011;1815;50.950;6.920;2022-11-11T01:12:25;5.90;;;3.90;;
3601;SDS011;1815;50.950;6.920;2022-11-11T01:15:09;10.82;;;4.55;;
3601;SDS011;1815;50.950;6.920;2022-11-11T01:17:54;5.47;;;3.92;;
3601;SDS011;1815;50.950;6.920;2022-11-11T01:20:38;8.80;;;4.35;;
3601;SDS011;1815;50.950;6.920;2022-11-11T01:23:24;6.10;;;4.20;;
3601;SDS011;1815;50.950;6.920;2022-11-11T01:26:16;5.15;;;3.90;;
3601;SDS011;1815;50.950;6.920;2022-11-11T01:29:06;6.35;;;4.32;;
3601;SDS011;1815;50.950;6.920;2022-11-11T01:31:50;6.00;;;4.68;;
3601;SDS011;1815;50.950;6.920;2022-11-11T01:34:35;6.72;;;4.45;;
3601;SDS011;1815;50.950;6.920;2022-11-11T01:37:19;8.75;;;4.60;;
3601;SDS011;1815;50.950;6.920;2022-11-11T01:40:03;9.07;;;4.10;;
3601;SDS011;1815;50.950;6.920;2022-11-11T01:42:48;7.45;;;4.65;;
3601;SDS011;1815;50.950;6.920;2022-11-11T01:45:47;9.05;;;4.55;;
3601;SDS011;1815;50.950;6.920;2022-11-11T01:48:41;5.28;;;4.00;;
3601;SDS011;1815;50.950;6.920;2022-11-11T01:51:51;8.18;;;4.65;;
3601;SDS011;1815;50.950;6.920;2022-11-11T01:54:58;6.22;;;3.58;;
3601;SDS011;1815;50.950;6.920;2022-11-11T01:57:48;7.10;;;4.20;;
3601;SDS011;1815;50.950;6.920;2022-11-11T02:00:33;7.35;;;5.47;;
3601;SDS011;1815;50.950;6.920;2022-11-11T02:03:18;4.85;;;4.35;;
3601;SDS011;1815;50.950;6.920;2022-11-11T02:06:06;6.32;;;4.25;;
3601;SDS011;1815;50.950;6.920;2022-11-11T02:08:51;5.80;;;4.70;;
3601;SDS011;1815;50.950;6.920;2022-11-11T02:11:36;9.35;;;4.10;;
3601;SDS011;1815;50.950;6.920;2022-11-11T02:14:43;6.25;;;4.50;;
3601;SDS011;1815;50.950;6.920;2022-11-11T02:17:30;5.32;;;4.03;;
3601;SDS011;1815;50.950;6.920;2022-11-11T02:20:20;8.60;;;4.80;;
3601;SDS011;1815;50.950;6.920;2022-11-11T02:23:15;8.38;;;4.38;;
3601;SDS011;1815;50.950;6.920;2022-11-11T02:26:05;8.10;;;4.60;;
3601;SDS011;1815;50.950;6.920;2022-11-11T02:28:51;6.53;;;4.32;;
3601;SDS011;1815;50.950;6.920;2022-11-11T02:31:37;7.65;;;5.05;;
3601;SDS011;1815;50.950;6.920;2022-11-11T02:34:27;9.13;;;4.55;;
3601;SDS011;1815;50.950;6.920;2022-11-11T02:37:16;5.85;;;4.22;;
3601;SDS011;1815;50.950;6.920;2022-11-11T02:40:03;4.88;;;4.00;;
3601;SDS011;1815;50.950;6.920;2022-11-11T02:42:51;4.47;;;3.80;;
3601;SDS011;1815;50.950;6.920;2022-11-11T02:45:36;5.85;;;3.63;;
3601;SDS011;1815;50.950;6.920;2022-11-11T02:48:20;7.53;;;3.80;;
3601;SDS011;1815;50.950;6.920;2022-11-11T02:51:05;8.80;;;5.72;;
3601;SDS011;1815;50.950;6.920;2022-11-11T02:53:51;9.93;;;3.97;;
3601;SDS011;1815;50.950;6.920;2022-11-11T02:56:40;5.95;;;4.15;;
3601;SDS011;1815;50.950;6.920;2022-11-11T02:59:45;6.93;;;4.85;;
3601;SDS011;1815;50.950;6.920;2022-11-11T03:02:29;4.82;;;3.72;;
3601;SDS011;1815;50.950;6.920;2022-11-11T03:05:14;5.28;;;4.55;;
3601;SDS011;1815;50.950;6.920;2022-11-11T03:07:59;6.50;;;3.60;;
3601;SDS011;1815;50.950;6.920;2022-11-11T03:10:43;7.07;;;4.40;;
3601;SDS011;1815;50.950;6.920;2022-11-11T03:13:27;5.63;;;4.18;;
3601;SDS011;1815;50.950;6.920;2022-11-11T03:16:12;7.00;;;4.43;;
3601;SDS011;1815;50.950;6.920;2022-11-11T03:19:16;6.32;;;4.53;;
3601;SDS011;1815;50.950;6.920;2022-11-11T03:22:01;6.75;;;3.42;;
3601;SDS011;1815;50.950;6.920;2022-11-11T03:24:45;5.05;;;4.13;;
3601;SDS011;1815;50.950;6.920;2022-11-11T03:27:49;6.15;;;4.32;;
3601;SDS011;1815;50.950;6.920;2022-11-11T03:30:33;5.18;;;4.22;;
3601;SDS011;1815;50.950;6.920;2022-11-11T03:33:18;5.85;;;4.15;;
3601;SDS011;1815;50.950;6.920;2022-11-11T03:36:03;5.35;;;4.20;;
3601;SDS011;1815;50.950;6.920;2022-11-11T03:38:47;7.30;;;5.00;;
3601;SDS011;1815;50.950;6.920;2022-11-11T03:41:32;5.93;;;4.63;;
3601;SDS011;1815;50.950;6.920;2022-11-11T03:44:16;7.43;;;4.63;;
3601;SDS011;1815;50.950;6.920;2022-11-11T03:47:00;7.80;;;5.13;;
3601;SDS011;1815;50.950;6.920;2022-11-11T03:49:45;8.88;;;4.43;;
3601;SDS011;1815;50.950;6.920;2022-11-11T03:52:29;5.00;;;4.50;;
3601;SDS011;1815;50.950;6.920;2022-11-11T03:55:14;7.57;;;5.20;;
3601;SDS011;1815;50.950;6.920;2022-11-11T03:57:58;6.72;;;4.55;;
3601;SDS011;1815;50.950;6.920;2022-11-11T04:00:42;7.43;;;5.15;;
3601;SDS011;1815;50.950;6.920;2022-11-11T04:03:27;7.70;;;4.65;;
3601;SDS011;1815;50.950;6.920;2022-11-11T04:06:30;4.72;;;4.15;;
3601;SDS011;1815;50.950;6.920;2022-11-11T04:09:34;8.48;;;6.03;;
3601;SDS011;1815;50.950;6.920;2022-11-11T04:12:37;5.80;;;4.90;;
3601;SDS011;1815;50.950;6.920;2022-11-11T04:15:42;6.15;;;4.55;;
3601;SDS011;1815;50.950;6.920;2022-11-11T04:18:45;8.07;;;4.82;;
3601;SDS011;1815;50.950;6.920;2022-11-11T04:21:48;5.18;;;4.55;;
3601;SDS011;1815;50.950;6.920;2022-11-11T04:24:33;7.45;;;5.85;;
3601;SDS011;1815;50.950;6.920;2022-11-11T04:27:36;8.07;;;5.05;;
3601;SDS011;1815;50.950;6.920;2022-11-11T04:30:20;7.10;;;4.88;;
3601;SDS011;1815;50.950;6.920;2022-11-11T04:33:05;8.95;;;5.88;;
3601;SDS011;1815;50.950;6.920;2022-11-11T04:35:49;5.75;;;4.15;;
3601;SDS011;1815;50.950;6.920;2022-11-11T04:38:33;8.40;;;4.40;;
3601;SDS011;1815;50.950;6.920;2022-11-11T04:41:37;5.18;;;3.80;;
3601;SDS011;1815;50.950;6.920;2022-11-11T04:44:21;7.10;;;4.30;;
3601;SDS011;1815;50.950;6.920;2022-11-11T04:47:24;7.57;;;4.60;;
3601;SDS011;1815;50.950;6.920;2022-11-11T04:50:09;5.28;;;3.67;;
3601;SDS011;1815;50.950;6.920;2022-11-11T04:52:53;6.70;;;3.72;;
3601;SDS011;1815;50.950;6.920;2022-11-11T04:55:38;7.15;;;4.80;;
3601;SDS011;1815;50.950;6.920;2022-11-11T04:58:42;6.30;;;4.47;;
3601;SDS011;1815;50.950;6.920;2022-11-11T05:01:27;6.47;;;4.47;;
3601;SDS011;1815;50.950;6.920;2022-11-11T05:04:30;7.50;;;5.07;;
3601;SDS011;1815;50.950;6.920;2022-11-11T05:07:14;8.05;;;4.85;;
3601;SDS011;1815;50.950;6.920;2022-11-11T05:10:18;6.53;;;5.53;;
3601;SDS011;1815;50.950;6.920;2022-11-11T05:13:02;5.32;;;4.72;;
3601;SDS011;1815;50.950;6.920;2022-11-11T05:16:07;5.68;;;4.20;;
3601;SDS011;1815;50.950;6.920;2022-11-11T05:19:14;6.68;;;4.70;;
3601;SDS011;1815;50.950;6.920;2022-11-11T05:22:18;8.43;;;4.40;;
3601;SDS011;1815;50.950;6.920;2022-11-11T05:25:04;8.32;;;4.10;;
3601;SDS011;1815;50.950;6.920;2022-11-11T05:28:08;8.35;;;5.13;;
3601;SDS011;1815;50.950;6.920;2022-11-11T05:30:52;7.60;;;5.55;;
3601;SDS011;1815;50.950;6.920;2022-11-11T05:33:37;10.80;;;4.88;;
3601;SDS011;1815;50.950;6.920;2022-11-11T05:36:22;8.82;;;5.43;;
3601;SDS011;1815;50.950;6.920;2022-11-11T05:39:06;8.13;;;4.80;;
3601;SDS011;1815;50.950;6.920;2022-11-11T05:41:51;8.30;;;5.30;;
3601;SDS011;1815;50.950;6.920;2022-11-11T05:44:35;8.18;;;5.43;;
3601;SDS011;1815;50.950;6.920;2022-11-11T05:47:19;8.73;;;6.13;;
3601;SDS011;1815;50.950;6.920;2022-11-11T05:50:04;11.02;;;5.63;;
3601;SDS011;1815;50.950;6.920;2022-11-11T05:52:48;7.65;;;4.95;;
3601;SDS011;1815;50.950;6.920;2022-11-11T05:55:33;7.25;;;4.78;;
3601;SDS011;1815;50.950;6.920;2022-11-11T05:58:18;14.40;;;5.78;;
3601;SDS011;1815;50.950;6.920;2022-11-11T06:01:03;10.70;;;5.88;;
3601;SDS011;1815;50.950;6.920;2022-11-11T06:03:47;9.50;;;4.35;;
3601;SDS011;1815;50.950;6.920;2022-11-11T06:06:33;8.50;;;5.38;;
3601;SDS011;1815;50.950;6.920;2022-11-11T06:09:18;8.45;;;5.72;;
3601;SDS011;1815;50.950;6.920;2022-11-11T06:12:02;6.07;;;4.80;;
3601;SDS011;1815;50.950;6.920;2022-11-11T06:14:47;7.22;;;4.88;;
3601;SDS011;1815;50.950;6.920;2022-11-11T06:17:32;7.13;;;5.40;;
3601;SDS011;1815;50.950;6.920;2022-11-11T06:20:17;6.68;;;5.10;;
3601;SDS011;1815;50.950;6.920;2022-11-11T06:23:02;12.80;;;6.00;;
3601;SDS011;1815;50.950;6.920;2022-11-11T06:25:47;6.15;;;5.15;;
3601;SDS011;1815;50.950;6.920;2022-11-11T06:28:51;7.18;;;4.80;;
3601;SDS011;1815;50.950;6.920;2022-11-11T06:31:37;8.10;;;5.03;;
3601;SDS011;1815;50.950;6.920;2022-11-11T06:34:21;7.80;;;4.65;;
3601;SDS011;1815;50.950;6.920;2022-11-11T06:37:06;8.80;;;5.22;;
3601;SDS011;1815;50.950;6.920;2022-11-11T06:39:50;9.55;;;5.50;;
3601;SDS011;1815;50.950;6.920;2022-11-11T06:42:35;11.40;;;6.90;;
3601;SDS011;1815;50.950;6.920;2022-11-11T06:45:20;7.30;;;6.25;;
3601;SDS011;1815;50.950;6.920;2022-11-11T06:48:04;8.55;;;6.00;;
3601;SDS011;1815;50.950;6.920;2022-11-11T06:50:49;8.63;;;5.40;;
3601;SDS011;1815;50.950;6.920;2022-11-11T06:53:34;7.53;;;5.50;;
3601;SDS011;1815;50.950;6.920;2022-11-11T06:56:19;11.43;;;5.53;;
3601;SDS011;1815;50.950;6.920;2022-11-11T06:59:04;8.75;;;5.07;;
3601;SDS011;1815;50.950;6.920;2022-11-11T07:01:49;9.25;;;6.10;;
3601;SDS011;1815;50.950;6.920;2022-11-11T07:04:34;9.48;;;6.18;;
3601;SDS011;1815;50.950;6.920;2022-11-11T07:07:18;8.20;;;5.50;;
3601;SDS011;1815;50.950;6.920;2022-11-11T07:10:03;7.47;;;6.68;;
3601;SDS011;1815;50.950;6.920;2022-11-11T07:12:49;12.80;;;6.90;;
3601;SDS011;1815;50.950;6.920;2022-11-11T07:15:34;12.30;;;7.20;;
3601;SDS011;1815;50.950;6.920;2022-11-11T07:18:20;7.82;;;4.90;;
3601;SDS011;1815;50.950;6.920;2022-11-11T07:21:05;9.93;;;6.97;;
3601;SDS011;1815;50.950;6.920;2022-11-11T07:23:49;7.45;;;5.80;;
3601;SDS011;1815;50.950;6.920;2022-11-11T07:26:34;7.53;;;5.07;;
3601;SDS011;1815;50.950;6.920;2022-11-11T07:29:18;8.65;;;5.65;;
3601;SDS011;1815;50.950;6.920;2022-11-11T07:32:02;11.10;;;5.95;;
3601;SDS011;1815;50.950;6.920;2022-11-11T07:34:47;8.18;;;5.18;;
3601;SDS011;1815;50.950;6.920;2022-11-11T07:37:34;9.80;;;6.18;;
3601;SDS011;1815;50.950;6.920;2022-11-11T07:40:19;9.60;;;5.97;;
3601;SDS011;1815;50.950;6.920;2022-11-11T07:43:03;13.23;;;5.88;;
3601;SDS011;1815;50.950;6.920;2022-11-11T07:45:47;9.50;;;5.75;;
3601;SDS011;1815;50.950;6.920;2022-11-11T07:48:32;7.55;;;6.30;;
3601;SDS011;1815;50.950;6.920;2022-11-11T07:51:16;9.20;;;6.65;;
3601;SDS011;1815;50.950;6.920;2022-11-11T07:54:00;6.53;;;4.80;;
3601;SDS011;1815;50.950;6.920;2022-11-11T07:56:45;10.95;;;5.88;;
3601;SDS011;1815;50.950;6.920;2022-11-11T07:59:29;13.10;;;6.00;;
3601;SDS011;1815;50.950;6.920;2022-11-11T08:02:13;9.95;;;7.13;;
3601;SDS011;1815;50.950;6.920;2022-11-11T08:04:59;10.50;;;5.53;;
3601;SDS011;1815;50.950;6.920;2022-11-11T08:07:43;9.50;;;6.70;;
3601;SDS011;1815;50.950;6.920;2022-11-11T08:10:27;10.23;;;5.82;;
3601;SDS011;1815;50.950;6.920;2022-11-11T08:13:12;9.50;;;6.40;;
3601;SDS011;1815;50.950;6.920;2022-11-11T08:16:15;8.27;;;5.55;;
3601;SDS011;1815;50.950;6.920;2022-11-11T08:19:00;13.15;;;7.47;;
3601;SDS011;1815;50.950;6.920;2022-11-11T08:21:44;7.28;;;5.65;;
3601;SDS011;1815;50.950;6.920;2022-11-11T08:24:31;9.02;;;6.45;;
3601;SDS011;1815;50.950;6.920;2022-11-11T08:27:15;9.82;;;6.65;;
3601;SDS011;1815;50.950;6.920;2022-11-11T08:29:59;8.20;;;5.75;;
3601;SDS011;1815;50.950;6.920;2022-11-11T08:32:45;10.35;;;6.85;;
3601;SDS011;1815;50.950;6.920;2022-11-11T08:35:30;7.68;;;6.65;;
3601;SDS011;1815;50.950;6.920;2022-11-11T08:38:14;7.85;;;6.18;;
3601;SDS011;1815;50.950;6.920;2022-11-11T08:41:02;8.20;;;6.05;;
3601;SDS011;1815;50.950;6.920;2022-11-11T08:43:53;9.57;;;6.40;;
3601;SDS011;1815;50.950;6.920;2022-11-11T08:46:38;8.48;;;5.65;;
3601;SDS011;1815;50.950;6.920;2022-11-11T08:49:22;9.30;;;5.70;;
3601;SDS011;1815;50.950;6.920;2022-11-11T08:52:07;9.43;;;5.80;;
3601;SDS011;1815;50.950;6.920;2022-11-11T08:54:52;10.95;;;6.90;;
3601;SDS011;1815;50.950;6.920;2022-11-11T08:57:36;8.73;;;4.85;;
3601;SDS011;1815;50.950;6.920;2022-11-11T09:00:21;11.40;;;6.97;;
3601;SDS011;1815;50.950;6.920;2022-11-11T09:03:07;7.57;;;6.38;;
3601;SDS011;1815;50.950;6.920;2022-11-11T09:05:53;8.57;;;6.40;;
3601;SDS011;1815;50.950;6.920;2022-11-11T09:08:40;9.48;;;7.38;;
3601;SDS011;1815;50.950;6.920;2022-11-11T09:11:24;7.32;;;5.88;;
3601;SDS011;1815;50.950;6.920;2022-11-11T09:14:09;10.25;;;5.95;;
3601;SDS011;1815;50.950;6.920;2022-11-11T09:16:53;6.05;;;5.07;;
3601;SDS011;1815;50.950;6.920;2022-11-11T09:19:37;6.93;;;4.95;;
3601;SDS011;1815;50.950;6.920;2022-11-11T09:22:22;6.25;;;4.68;;
3601;SDS011;1815;50.950;6.920;2022-11-11T09:25:06;7.43;;;5.25;;
3601;SDS011;1815;50.950;6.920;2022-11-11T09:27:54;7.43;;;5.00;;
3601;SDS011;1815;50.950;6.920;2022-11-11T09:30:39;8.80;;;5.67;;
3601;SDS011;1815;50.950;6.920;2022-11-11T09:33:23;7.03;;;4.55;;
3601;SDS011;1815;50.950;6.920;2022-11-11T09:36:08;7.10;;;4.63;;
3601;SDS011;1815;50.950;6.920;2022-11-11T09:38:52;8.63;;;5.63;;
3601;SDS011;1815;50.950;6.920;2022-11-11T09:44:58;8.23;;;5.20;;
3601;SDS011;1815;50.950;6.920;2022-11-11T09:50:47;10.10;;;4.70;;
3601;SDS011;1815;50.950;6.920;2022-11-11T09:53:39;6.07;;;3.87;;
3601;SDS011;1815;50.950;6.920;2022-11-11T09:56:26;8.30;;;4.40;;
3601;SDS011;1815;50.950;6.920;2022-11-11T09:59:15;7.17;;;4.37;;
3601;SDS011;1815;50.950;6.920;2022-11-11T10:02:10;11.83;;;4.90;;
3601;SDS011;1815;50.950;6.920;2022-11-11T10:07:53;8.93;;;4.63;;
3601;SDS011;1815;50.950;6.920;2022-11-11T10:10:58;8.10;;;5.10;;
3601;SDS011;1815;50.950;6.920;2022-11-11T10:13:44;5.20;;;4.37;;
3601;SDS011;1815;50.950;6.920;2022-11-11T10:19:49;4.93;;;3.27;;
3601;SDS011;1815;50.950;6.920;2022-11-11T10:22:42;7.50;;;4.00;;
3601;SDS011;1815;50.950;6.920;2022-11-11T10:25:27;8.27;;;4.40;;
3601;SDS011;1815;50.950;6.920;2022-11-11T10:28:14;6.23;;;4.20;;
3601;SDS011;1815;50.950;6.920;2022-11-11T10:31:02;6.23;;;3.83;;
3601;SDS011;1815;50.950;6.920;2022-11-11T10:36:52;6.77;;;4.67;;
3601;SDS011;1815;50.950;6.920;2022-11-11T10:39:54;11.43;;;5.23;;
3601;SDS011;1815;50.950;6.920;2022-11-11T10:42:40;5.93;;;4.17;;
3601;SDS011;1815;50.950;6.920;2022-11-11T10:51:43;6.47;;;4.43;;
3601;SDS011;1815;50.950;6.920;2022-11-11T10:54:44;5.27;;;2.53;;
3601;SDS011;1815;50.950;6.920;2022-11-11T10:57:37;6.60;;;4.00;;
3601;SDS011;1815;50.950;6.920;2022-11-11T11:00:42;9.20;;;3.90;;
3601;SDS011;1815;50.950;6.920;2022-11-11T11:03:32;5.20;;;3.70;;
3601;SDS011;1815;50.950;6.920;2022-11-11T11:06:21;7.70;;;3.30;;
3601;SDS011;1815;50.950;6.920;2022-11-11T11:09:16;6.40;;;3.70;;
3601;SDS011;1815;50.950;6.920;2022-11-11T11:15:25;7.33;;;4.43;;
3601;SDS011;1815;50.950;6.920;2022-11-11T11:18:12;9.00;;;4.13;;
3601;SDS011;1815;50.950;6.920;2022-11-11T11:21:05;10.70;;;3.37;;
3601;SDS011;1815;50.950;6.920;2022-11-11T11:23:51;4.93;;;3.00;;
3601;SDS011;1815;50.950;6.920;2022-11-11T11:26:49;7.77;;;2.83;;
3601;SDS011;1815;50.950;6.920;2022-11-11T11:29:36;3.57;;;2.27;;
3601;SDS011;1815;50.950;6.920;2022-11-11T11:32:31;6.63;;;2.70;;
3601;SDS011;1815;50.950;6.920;2022-11-11T11:38:20;6.23;;;2.40;;
3601;SDS011;1815;50.950;6.920;2022-11-11T11:44:33;4.43;;;2.13;;
3601;SDS011;1815;50.950;6.920;2022-11-11T11:47:27;2.90;;;1.53;;
3601;SDS011;1815;50.950;6.920;2022-11-11T11:50:45;5.00;;;2.10;;
3601;SDS011;1815;50.950;6.920;2022-11-11T11:54:02;4.63;;;2.37;;
3601;SDS011;1815;50.950;6.920;2022-11-11T11:56:57;3.07;;;2.07;;
3601;SDS011;1815;50.950;6.920;2022-11-11T11:59:50;3.17;;;1.60;;
3601;SDS011;1815;50.950;6.920;2022-11-11T12:05:57;3.27;;;1.43;;
3601;SDS011;1815;50.950;6.920;2022-11-11T12:11:55;4.00;;;1.83;;
3601;SDS011;1815;50.950;6.920;2022-11-11T12:17:56;5.77;;;1.97;;
3601;SDS011;1815;50.950;6.920;2022-11-11T12:21:23;5.20;;;2.23;;
3601;SDS011;1815;50.950;6.920;2022-11-11T12:24:17;3.40;;;1.80;;
3601;SDS011;1815;50.950;6.920;2022-11-11T12:27:34;3.80;;;1.50;;
3601;SDS011;1815;50.950;6.920;2022-11-11T12:30:37;2.80;;;1.33;;
3601;SDS011;1815;50.950;6.920;2022-11-11T12:36:35;4.40;;;2.77;;
3601;SDS011;1815;50.950;6.920;2022-11-11T12:39:32;5.60;;;2.20;;
3601;SDS011;1815;50.950;6.920;2022-11-11T12:42:44;3.67;;;2.00;;
3601;SDS011;1815;50.950;6.920;2022-11-11T12:51:56;3.20;;;1.40;;
3601;SDS011;1815;50.950;6.920;2022-11-11T12:54:55;3.40;;;1.60;;
3601;SDS011;1815;50.950;6.920;2022-11-11T13:03:47;3.60;;;1.97;;
3601;SDS011;1815;50.950;6.920;2022-11-11T13:07:00;3.40;;;1.27;;
3601;SDS011;1815;50.950;6.920;2022-11-11T13:13:07;2.80;;;1.27;;
3601;SDS011;1815;50.950;6.920;2022-11-11T13:16:08;2.27;;;1.10;;
3601;SDS011;1815;50.950;6.920;2022-11-11T13:18:57;5.80;;;2.40;;
3601;SDS011;1815;50.950;6.920;2022-11-11T13:21:47;2.30;;;1.10;;
3601;SDS011;1815;50.950;6.920;2022-11-11T13:24:37;2.80;;;1.10;;
3601;SDS011;1815;50.950;6.920;2022-11-11T13:27:24;3.90;;;1.40;;
3601;SDS011;1815;50.950;6.920;2022-11-11T13:30:55;7.03;;;3.43;;
3601;SDS011;1815;50.950;6.920;2022-11-11T13:33:36;4.07;;;2.60;;
3601;SDS011;1815;50.950;6.920;2022-11-11T13:36:27;3.47;;;1.60;;
3601;SDS011;1815;50.950;6.920;2022-11-11T13:39:21;3.50;;;1.20;;
3601;SDS011;1815;50.950;6.920;2022-11-11T13:42:21;3.10;;;1.07;;
3601;SDS011;1815;50.950;6.920;2022-11-11T13:45:18;5.10;;;1.20;;
3601;SDS011;1815;50.950;6.920;2022-11-11T13:48:25;2.60;;;1.10;;
3601;SDS011;1815;50.950;6.920;2022-11-11T13:51:30;2.50;;;1.10;;
3601;SDS011;1815;50.950;6.920;2022-11-11T13:54:33;2.60;;;1.47;;
3601;SDS011;1815;50.950;6.920;2022-11-11T13:57:25;1.70;;;0.90;;
3601;SDS011;1815;50.950;6.920;2022-11-11T14:08:58;3.00;;;1.10;;
3601;SDS011;1815;50.950;6.920;2022-11-11T14:11:43;3.10;;;1.20;;
3601;SDS011;1815;50.950;6.920;2022-11-11T14:17:17;2.33;;;1.10;;
3601;SDS011;1815;50.950;6.920;2022-11-11T14:20:45;2.57;;;0.97;;
3601;SDS011;1815;50.950;6.920;2022-11-11T14:28:57;2.87;;;0.97;;
3601;SDS011;1815;50.950;6.920;2022-11-11T14:34:45;4.13;;;2.23;;
3601;SDS011;1815;50.950;6.920;2022-11-11T14:38:02;4.60;;;3.13;;
3601;SDS011;1815;50.950;6.920;2022-11-11T14:40:57;8.80;;;3.43;;
3601;SDS011;1815;50.950;6.920;2022-11-11T14:50:00;3.10;;;1.40;;
3601;SDS011;1815;50.950;6.920;2022-11-11T14:52:45;3.10;;;1.07;;
3601;SDS011;1815;50.950;6.920;2022-11-11T14:55:36;3.50;;;1.40;;
3601;SDS011;1815;50.950;6.920;2022-11-11T14:58:23;3.90;;;2.47;;
3601;SDS011;1815;50.950;6.920;2022-11-11T15:01:16;6.80;;;4.27;;
3601;SDS011;1815;50.950;6.920;2022-11-11T15:04:02;5.80;;;3.60;;
3601;SDS011;1815;50.950;6.920;2022-11-11T15:10:09;6.93;;;2.23;;
3601;SDS011;1815;50.950;6.920;2022-11-11T15:18:49;2.60;;;2.03;;
3601;SDS011;1815;50.950;6.920;2022-11-11T15:22:09;3.67;;;1.70;;
3601;SDS011;1815;50.950;6.920;2022-11-11T15:28:13;6.50;;;1.57;;
3601;SDS011;1815;50.950;6.920;2022-11-11T15:31:41;4.73;;;2.00;;
3601;SDS011;1815;50.950;6.920;2022-11-11T15:37:29;3.40;;;1.10;;
3601;SDS011;1815;50.950;6.920;2022-11-11T15:40:18;5.60;;;1.20;;
3601;SDS011;1815;50.950;6.920;2022-11-11T15:43:03;4.30;;;1.97;;
3601;SDS011;1815;50.950;6.920;2022-11-11T15:45:49;4.00;;;1.43;;
3601;SDS011;1815;50.950;6.920;2022-11-11T15:48:40;2.97;;;2.47;;
3601;SDS011;1815;50.950;6.920;2022-11-11T15:51:30;2.67;;;1.67;;
3601;SDS011;1815;50.950;6.920;2022-11-11T16:03:10;4.53;;;1.70;;
3601;SDS011;1815;50.950;6.920;2022-11-11T16:06:03;4.50;;;2.57;;
3601;SDS011;1815;50.950;6.920;2022-11-11T16:08:51;4.97;;;3.27;;
3601;SDS011;1815;50.950;6.920;2022-11-11T16:11:39;6.07;;;1.90;;
3601;SDS011;1815;50.950;6.920;2022-11-11T16:14:34;3.13;;;1.90;;
3601;SDS011;1815;50.950;6.920;2022-11-11T16:17:24;4.80;;;1.70;;
3601;SDS011;1815;50.950;6.920;2022-11-11T16:20:13;4.10;;;1.97;;
3601;SDS011;1815;50.950;6.920;2022-11-11T16:22:59;8.10;;;2.53;;
3601;SDS011;1815;50.950;6.920;2022-11-11T16:25:49;3.67;;;1.90;;
3601;SDS011;1815;50.950;6.920;2022-11-11T16:28:39;4.10;;;1.60;;
3601;SDS011;1815;50.950;6.920;2022-11-11T16:31:30;3.83;;;1.57;;
3601;SDS011;1815;50.950;6.920;2022-11-11T16:34:31;3.50;;;1.83;;
3601;SDS011;1815;50.950;6.920;2022-11-11T16:37:19;3.40;;;1.83;;
3601;SDS011;1815;50.950;6.920;2022-11-11T16:46:07;3.90;;;2.27;;
3601;SDS011;1815;50.950;6.920;2022-11-11T16:48:55;2.93;;;1.80;;
3601;SDS011;1815;50.950;6.920;2022-11-11T16:51:45;3.63;;;1.93;;
3601;SDS011;1815;50.950;6.920;2022-11-11T16:54:32;2.83;;;1.63;;
3601;SDS011;1815;50.950;6.920;2022-11-11T16:57:25;8.90;;;4.10;;
3601;SDS011;1815;50.950;6.920;2022-11-11T17:00:12;4.80;;;3.07;;
3601;SDS011;1815;50.950;6.920;2022-11-11T17:03:06;6.50;;;3.30;;
3601;SDS011;1815;50.950;6.920;2022-11-11T17:08:50;5.60;;;2.23;;
3601;SDS011;1815;50.950;6.920;2022-11-11T17:14:22;5.80;;;3.27;;
3601;SDS011;1815;50.950;6.920;2022-11-11T17:17:07;8.37;;;4.07;;
3601;SDS011;1815;50.950;6.920;2022-11-11T17:19:52;8.07;;;3.33;;
3601;SDS011;1815;50.950;6.920;2022-11-11T17:23:12;4.43;;;3.20;;
3601;SDS011;1815;50.950;6.920;2022-11-11T17:25:56;6.50;;;4.03;;
3601;SDS011;1815;50.950;6.920;2022-11-11T17:28:43;8.70;;;5.83;;
3601;SDS011;1815;50.950;6.920;2022-11-11T17:31:27;6.67;;;4.37;;
3601;SDS011;1815;50.950;6.920;2022-11-11T17:34:12;5.17;;;3.00;;
3601;SDS011;1815;50.950;6.920;2022-11-11T17:36:56;8.57;;;4.17;;
3601;SDS011;1815;50.950;6.920;2022-11-11T17:39:40;7.93;;;5.00;;
3601;SDS011;1815;50.950;6.920;2022-11-11T17:42:28;12.60;;;9.53;;
3601;SDS011;1815;50.950;6.920;2022-11-11T17:45:13;9.40;;;6.87;;
3601;SDS011;1815;50.950;6.920;2022-11-11T17:47:57;8.30;;;4.82;;
3601;SDS011;1815;50.950;6.920;2022-11-11T17:50:42;9.77;;;3.50;;
3601;SDS011;1815;50.950;6.920;2022-11-11T17:53:26;6.73;;;2.97;;
3601;SDS011;1815;50.950;6.920;2022-11-11T17:56:11;7.43;;;4.60;;
3601;SDS011;1815;50.950;6.920;2022-11-11T17:58:55;7.87;;;4.87;;
3601;SDS011;1815;50.950;6.920;2022-11-11T18:01:39;8.10;;;5.33;;
3601;SDS011;1815;50.950;6.920;2022-11-11T18:04:24;7.80;;;6.43;;
3601;SDS011;1815;50.950;6.920;2022-11-11T18:07:08;8.20;;;4.72;;
3601;SDS011;1815;50.950;6.920;2022-11-11T18:09:53;7.23;;;4.10;;
3601;SDS011;1815;50.950;6.920;2022-11-11T18:12:37;8.25;;;3.45;;
3601;SDS011;1815;50.950;6.920;2022-11-11T18:15:21;7.05;;;3.05;;
3601;SDS011;1815;50.950;6.920;2022-11-11T18:18:05;5.43;;;3.40;;
3601;SDS011;1815;50.950;6.920;2022-11-11T18:20:50;5.32;;;3.15;;
3601;SDS011;1815;50.950;6.920;2022-11-11T18:23:35;9.73;;;2.90;;
3601;SDS011;1815;50.950;6.920;2022-11-11T18:26:21;7.00;;;4.50;;
3601;SDS011;1815;50.950;6.920;2022-11-11T18:29:05;6.97;;;4.57;;
3601;SDS011;1815;50.950;6.920;2022-11-11T18:31:50;8.87;;;7.20;;
3601;SDS011;1815;50.950;6.920;2022-11-11T18:34:35;9.33;;;6.77;;
3601;SDS011;1815;50.950;6.920;2022-11-11T18:37:19;8.57;;;6.18;;
3601;SDS011;1815;50.950;6.920;2022-11-11T18:40:04;8.88;;;5.82;;
3601;SDS011;1815;50.950;6.920;2022-11-11T18:42:49;7.90;;;6.17;;
3601;SDS011;1815;50.950;6.920;2022-11-11T18:45:34;5.07;;;4.30;;
3601;SDS011;1815;50.950;6.920;2022-11-11T18:48:19;12.23;;;9.73;;
3601;SDS011;1815;50.950;6.920;2022-11-11T18:51:03;19.40;;;12.47;;
3601;SDS011;1815;50.950;6.920;2022-11-11T18:53:50;12.80;;;9.55;;
3601;SDS011;1815;50.950;6.920;2022-11-11T18:56:35;10.30;;;6.53;;
3601;SDS011;1815;50.950;6.920;2022-11-11T18:59:22;5.75;;;4.50;;
3601;SDS011;1815;50.950;6.920;2022-11-11T19:02:07;6.30;;;4.03;;
3601;SDS011;1815;50.950;6.920;2022-11-11T19:04:51;9.20;;;6.15;;
3601;SDS011;1815;50.950;6.920;2022-11-11T19:07:36;8.25;;;5.60;;
3601;SDS011;1815;50.950;6.920;2022-11-11T19:10:20;7.70;;;5.28;;
3601;SDS011;1815;50.950;6.920;2022-11-11T19:13:07;10.25;;;5.88;;
3601;SDS011;1815;50.950;6.920;2022-11-11T19:15:52;7.63;;;4.57;;
3601;SDS011;1815;50.950;6.920;2022-11-11T19:18:37;6.03;;;4.43;;
3601;SDS011;1815;50.950;6.920;2022-11-11T19:21:23;6.43;;;5.18;;
3601;SDS011;1815;50.950;6.920;2022-11-11T19:24:08;5.53;;;4.88;;
3601;SDS011;1815;50.950;6.920;2022-11-11T19:26:54;6.30;;;4.40;;
3601;SDS011;1815;50.950;6.920;2022-11-11T19:29:38;6.88;;;4.53;;
3601;SDS011;1815;50.950;6.920;2022-11-11T19:32:22;8.48;;;5.07;;
3601;SDS011;1815;50.950;6.920;2022-11-11T19:35:07;6.28;;;4.47;;